Thetford Center, VT (05075)

5:45 PM EDT on September 04, 2015 (GMT -0400)
Stone House Farm | | Change Station
CLOSE
Current Station
Personal Weather Station
Location: Strafford, VT
Elevation: 1230 ft
Nearby Weather Stations

Elev 1230 ft 43.83 °N, 72.34 °W | Updated 6 seconds ago

Clear
Clear
72.0 °F
Feels Like 76 °F
N
2.0
Wind Variable Wind from WNW
Gusts 2.0 mph

Today
High -- | Low -- °F
--% Chance of Precip.
Yesterday
High -- | Low -- °F
Precip. -- in
6:15 AM 7:19 PM
Waning Gibbous, 56% visible
Pressure 30.14 in
Visibility 10.0 miles
Clouds Clear
Heat Index 76 °F
Dew Point 56 °F
Humidity 58%
Rainfall 0.00 in
Snow Depth Not available.
UV 2 out of 12
Pollen 7.90 out of 12
Air Quality Not available.
Flu Activity Not available.
METAR KLEB 042053Z 00000KT 10SM CLR 27/12 A3016 RMK AO2 SLP205 T02670122 56007
Pressure 30.14 in
Visibility 10.0 miles
Clouds Clear
Heat Index 76 °F
Dew Point 56 °F
Humidity 58%
Rainfall 0.00 in
Snow Depth Not available.
UV 2 out of 12
Pollen 7.90 out of 12
Air Quality Not available.
Flu Activity Not available.
METAR KLEB 042053Z 00000KT 10SM CLR 27/12 A3016 RMK AO2 SLP205 T02670122 56007

10-Day Weather Forecast

×

Almanac

Astronomy

Sep. 04, 2015 Rise Set
Actual Time
Civil Twilight
Nautical Twilight
Astronomical Twilight
Moon
Length of Visible Light
Length of Day
Tomorrow will be .
, % of the Moon is Illuminated

Today's Extremes

State Highs State Lows

Community

WunderPhotos

Upload Photos

1,852,297 photos uploaded!

WunderBlogs® & News

Nearby

Air Quality

  Air Quality AQ Index Pollutant
Not available.

Snow Depth

Station Depth Elevation

Earthquake Activity

City Distance Mag. Time & Date
Minimum magnitude displayed is 2.5.

Coastal Water Temperatures

Place Temperature

Stations

Nearby Weather Stations

Station Location Temp. Windchill Dew Point Humidity Wind Precip. Elev Updated Type